首页
METAR-TAF:

METAR-TAF

机场 :

列日机场

列日, 比利时

纬度: 50-39N, 经度: 005-27E, 海拔: 186米

当前天气观测

该预报发布于34分钟前的03:20 UTC
风速10节,风向南转西南
温度 12°C
湿度 88%
气压 1013 hPa
能见度10公里或以上
1500米以下无云,无积雨云

METAR: EBLG 240320Z 20010KT CAVOK 12/10 Q1013 NOSIG

时间: 05:54 (03:54 UTC)

预报

该预报发布于4小时和34分钟前的23:20 UTC
预报有效从24日的 00点(UTC)到 25日的 06点(UTC)
风速7节,风向南转西南
能见度10公里或以上
散云层高于2500英尺
几率 40% :
短暂存在
从 24日的 05点(UTC)到 24日的 14点(UTC)
能見度: 2500
多云层高于400英尺
毛毛雨
几率 30% :
短暂存在
从 24日的 14点(UTC)到 24日的 20点(UTC)
风速15节,风向,有时为25节阵风
成为
从 24日的 19点(UTC)到 24日的 21点(UTC)
风速18节,风向,有时为30节阵风
几率 40% :
短暂存在
从 25日的 05点(UTC)到 25日的 06点(UTC)
能見度: 3000
多云层高于1200英尺
阵雨
成为
从 25日的 04点(UTC)到 25日的 06点(UTC)
风速14节,风向南转西南

TAF: EBLG 232320Z 2400/2506 21007KT 9999 SCT025 PROB40 TEMPO 2405/2414 2500 DZ BKN004 PROB30 TEMPO 2414/2420 19015G25KT BECMG 2419/2421 19018G30KT PROB40 TEMPO 2505/2506 3000 SHRA BKN012 BECMG 2504/2506 20014KT

超过4000个机场的气象观测和天气预报(METAR&TAF报告)。

可查询的气象台以黄色和红色小点在地图上表示。

将鼠标移到小点上方,可查看气象台名称。

然后点击查看天气观测和预报。

如需切换地图:点击带黑十字的绿色按钮放大地图;点击带横线的绿色按钮缩小地图;或者点击绿色箭头查看邻近地区的地图。


METAR-TAF: